الصفحة الرئيسية
METAR-TAF:

METAR-TAF

مطار :

Tortola, جزر فيرجين البريطانية

دائرة عرض: 18-27N, خط طول: 064-32W, ارتفاع: 4 متر

مراقبة الطقس الحالي

تاريخ ووقت الإصدار 24 دقيقة قبل الساعة 15:00UTC
ريح 13 عقدة من الشرق
درجة الحرارة 30°درجة مئوية
الرطوبة 66%
ضغط 1017 hPa
الرؤية: 16.1 كم
غيوم مفككة على ارتفاع 2100 قدم

METAR: TUPJ 251500Z 10013KT 10SM BKN021 30/23 A3002 RMK Q1016 VIS16KM

زمن: 11:24 (15:24 UTC)

توقعات

تاريخ ووقت الإصدار 4ساعات و 24 دقيقة قبل الساعة 11:00UTC
التوقعات صالحة من25 الساعة 12 UTC إلى 26 الساعة 12 UTC
ريح 9 عقدة من الشرق
الرؤية 10 كم أو أكثر
غيوم متفرقة على ارتفاع 2000 قدم
نظرية الاحتمالات 30% :
مؤقت
من 25 الساعة 14 UTC إلى 25 الساعة 20 UTC
زخات من المطر,

TAF: TUPJ 251100Z 2512/2612 09009KT 9999 SCT020 PROB30 TEMPO 2514/2520 SHRA

أرصاد الطقس والتوقعات من أكثر من 4000 مطار (تقارير الطقس للمطار METAR والتنبؤ بالطقس بالمطارTAF).

المحطات المتاحة هي النقط الصفراء والحمراء على الخريطة.

حرك المؤشر فوق النقطة لمعرفة اسم المحطة.

ثم انقر لمعرفة أرصاد وتوقعات الطقس.

لتغيير الخارطة: اضغط على الأزرار الخضراء مع رمز الصليب الأسود للتكبير. على الزر الأخضر مع شرطة للتصغير، أو على الأسهم الخضراء للخرائط المجاورة.


METAR-TAF: